createdAt,value
2022-09-24T00:01:30.883Z,6.82
2022-09-24T00:04:02.320Z,7.18
2022-09-24T00:06:33.658Z,8.23
2022-09-24T00:09:00.208Z,8.45
2022-09-24T00:11:28.758Z,9.75
2022-09-24T00:13:56.846Z,9.10
2022-09-24T00:16:28.614Z,8.63
2022-09-24T00:18:55.648Z,8.15
2022-09-24T00:21:26.447Z,7.75
2022-09-24T00:23:58.723Z,9.27
2022-09-24T00:26:44.555Z,9.48
2022-09-24T00:29:13.867Z,9.52
2022-09-24T00:31:40.708Z,8.38
2022-09-24T00:34:07.546Z,9.23
2022-09-24T00:36:34.178Z,9.30
2022-09-24T00:39:01.203Z,9.25
2022-09-24T00:41:31.399Z,8.85
2022-09-24T00:43:58.760Z,7.35
2022-09-24T00:46:42.639Z,9.02
2022-09-24T00:49:14.882Z,8.07
2022-09-24T00:51:43.999Z,7.47
2022-09-24T00:54:16.231Z,8.70
2022-09-24T00:56:44.579Z,9.43
2022-09-24T00:59:17.319Z,8.38
2022-09-24T01:01:48.244Z,9.05
2022-09-24T01:04:17.587Z,8.30
2022-09-24T01:06:44.367Z,8.18
2022-09-24T01:09:11.203Z,8.52
2022-09-24T01:12:06.441Z,8.13
2022-09-24T01:14:54.635Z,7.38
2022-09-24T01:17:45.493Z,9.43
2022-09-24T01:20:33.077Z,9.48
2022-09-24T01:23:11.218Z,10.68
2022-09-24T01:25:46.482Z,11.30
2022-09-24T01:28:22.155Z,9.60
2022-09-24T01:30:55.424Z,10.48
2022-09-24T01:33:25.793Z,9.93
2022-09-24T01:35:57.298Z,9.50
2022-09-24T01:38:38.682Z,9.52
2022-09-24T01:41:07.933Z,10.32
2022-09-24T01:43:34.725Z,9.30
2022-09-24T01:46:06.065Z,8.65
2022-09-24T01:48:37.442Z,8.40
2022-09-24T01:51:27.362Z,9.10
2022-09-24T01:53:58.809Z,7.90
2022-09-24T01:56:48.458Z,8.05
2022-09-24T01:59:24.563Z,8.00
2022-09-24T02:02:01.117Z,8.73
2022-09-24T02:04:30.219Z,7.75
2022-09-24T02:07:00.576Z,9.43
2022-09-24T02:09:36.178Z,10.45
2022-09-24T02:12:12.420Z,8.82
2022-09-24T02:15:08.089Z,11.10
2022-09-24T02:17:37.560Z,9.07
2022-09-24T02:20:10.733Z,8.40
2022-09-24T02:22:39.124Z,8.85
2022-09-24T02:25:08.963Z,8.40
2022-09-24T02:27:36.077Z,8.23
2022-09-24T02:30:02.917Z,10.98
2022-09-24T02:32:31.678Z,10.55
2022-09-24T02:35:02.800Z,11.52
2022-09-24T02:37:29.634Z,12.60
2022-09-24T02:39:56.523Z,11.63
2022-09-24T02:42:23.317Z,11.40
2022-09-24T02:44:50.028Z,9.70
2022-09-24T02:47:16.646Z,11.52
2022-09-24T02:49:43.265Z,11.60
2022-09-24T02:52:10.402Z,10.15
2022-09-24T02:54:37.096Z,10.13
2022-09-24T02:57:03.885Z,9.60
2022-09-24T02:59:30.433Z,11.25
2022-09-24T03:01:57.305Z,13.55
2022-09-24T03:04:24.189Z,10.95
2022-09-24T03:06:50.868Z,10.15
2022-09-24T03:09:17.510Z,10.80
2022-09-24T03:11:44.124Z,83.90
2022-09-24T03:14:10.874Z,108.63
2022-09-24T03:16:37.533Z,25.42
2022-09-24T03:19:04.141Z,16.05
2022-09-24T03:21:30.737Z,16.25
2022-09-24T03:23:57.625Z,13.65
2022-09-24T03:26:24.214Z,14.68
2022-09-24T03:28:50.810Z,12.93
2022-09-24T03:31:17.505Z,13.02
2022-09-24T03:33:46.758Z,13.75
2022-09-24T03:36:22.840Z,12.98
2022-09-24T03:38:51.876Z,10.52
2022-09-24T03:41:19.044Z,9.88
2022-09-24T03:43:45.628Z,11.82
2022-09-24T03:46:12.996Z,17.73
2022-09-24T03:48:40.945Z,16.73
2022-09-24T03:51:13.804Z,13.00
2022-09-24T03:53:40.734Z,12.82
2022-09-24T03:56:08.659Z,13.25
2022-09-24T03:58:38.014Z,13.55
2022-09-24T04:01:06.891Z,12.77
2022-09-24T04:03:33.480Z,12.82
2022-09-24T04:06:00.082Z,14.73
2022-09-24T04:08:26.637Z,13.57
2022-09-24T04:10:53.567Z,14.98
2022-09-24T04:13:20.303Z,15.32
2022-09-24T04:15:48.126Z,14.95
2022-09-24T04:18:14.950Z,15.18
2022-09-24T04:20:42.112Z,14.35
2022-09-24T04:23:09.604Z,15.90
2022-09-24T04:25:37.486Z,13.65
2022-09-24T04:28:06.838Z,13.52
2022-09-24T04:30:34.448Z,18.13
2022-09-24T04:33:02.609Z,24.02
2022-09-24T04:35:31.794Z,25.50
2022-09-24T04:37:59.496Z,31.42
2022-09-24T04:40:26.772Z,87.68
2022-09-24T04:42:53.703Z,88.32
2022-09-24T04:45:21.128Z,40.95
2022-09-24T04:47:53.643Z,20.88
2022-09-24T04:50:20.702Z,26.48
2022-09-24T04:52:53.082Z,67.35
2022-09-24T04:55:23.289Z,34.80
2022-09-24T04:57:51.205Z,130.45
2022-09-24T05:00:20.419Z,136.30
2022-09-24T05:02:47.288Z,163.95
2022-09-24T05:05:14.483Z,42.88
2022-09-24T05:07:42.759Z,27.98
2022-09-24T05:10:09.599Z,21.75
2022-09-24T05:12:36.603Z,21.98
2022-09-24T05:15:04.395Z,20.45
2022-09-24T05:17:31.200Z,19.55
2022-09-24T05:20:01.494Z,16.40
2022-09-24T05:22:28.252Z,16.25
2022-09-24T05:24:54.816Z,13.88
2022-09-24T05:27:21.815Z,13.80
2022-09-24T05:29:48.787Z,13.43
2022-09-24T05:32:17.947Z,16.30
2022-09-24T05:34:45.309Z,16.83
2022-09-24T05:37:12.930Z,17.25
2022-09-24T05:39:39.739Z,14.10
2022-09-24T05:42:07.530Z,17.08
2022-09-24T05:44:34.243Z,14.40
2022-09-24T05:47:00.940Z,13.38
2022-09-24T05:49:27.633Z,15.70
2022-09-24T05:51:54.286Z,15.05
2022-09-24T05:54:21.223Z,11.38
2022-09-24T05:56:47.854Z,10.75
2022-09-24T05:59:14.539Z,11.07
2022-09-24T06:01:41.355Z,13.82
2022-09-24T06:04:09.324Z,15.90
2022-09-24T06:06:36.122Z,19.38
2022-09-24T06:09:02.911Z,31.88
2022-09-24T06:11:39.192Z,22.58
2022-09-24T06:14:08.842Z,18.35
2022-09-24T06:16:36.157Z,18.98
2022-09-24T06:19:02.916Z,15.30
2022-09-24T06:21:29.758Z,14.38
2022-09-24T06:23:56.619Z,14.05
2022-09-24T06:26:23.327Z,15.80
2022-09-24T06:28:49.913Z,16.35
2022-09-24T06:31:16.621Z,17.05
2022-09-24T06:33:43.245Z,18.15
2022-09-24T06:36:10.341Z,18.00
2022-09-24T06:38:39.359Z,17.75
2022-09-24T06:41:06.643Z,14.70
2022-09-24T06:43:34.247Z,13.63
2022-09-24T06:46:00.985Z,15.60
2022-09-24T06:48:28.756Z,16.67
2022-09-24T06:50:56.526Z,17.15
2022-09-24T06:53:23.572Z,16.52
2022-09-24T06:55:50.258Z,17.65
2022-09-24T06:58:22.192Z,18.83
2022-09-24T07:00:59.857Z,16.88
2022-09-24T07:03:28.500Z,15.20
2022-09-24T07:05:55.865Z,16.08
2022-09-24T07:08:22.608Z,14.80
2022-09-24T07:10:49.351Z,21.90
2022-09-24T07:13:16.627Z,24.02
2022-09-24T07:15:44.337Z,23.60
2022-09-24T07:18:11.319Z,22.88
2022-09-24T07:20:37.948Z,19.48
2022-09-24T07:23:05.816Z,22.48
2022-09-24T07:25:33.209Z,22.02
2022-09-24T07:28:12.082Z,20.05
2022-09-24T07:30:40.105Z,19.75
2022-09-24T07:33:07.611Z,18.33
2022-09-24T07:35:34.535Z,21.55
2022-09-24T07:38:07.106Z,17.70
2022-09-24T07:40:34.235Z,18.52
2022-09-24T07:43:00.921Z,19.08
2022-09-24T07:45:29.840Z,19.85
2022-09-24T07:48:04.842Z,19.40
2022-09-24T07:50:34.272Z,21.95
2022-09-24T07:53:00.821Z,21.08
2022-09-24T07:55:27.455Z,22.00
2022-09-24T07:57:55.827Z,20.17
2022-09-24T08:00:24.920Z,17.90
2022-09-24T08:02:53.215Z,23.38
2022-09-24T08:05:19.844Z,20.13
2022-09-24T08:07:57.085Z,19.10
2022-09-24T08:10:25.619Z,18.88
2022-09-24T08:12:52.300Z,16.33
2022-09-24T08:15:19.623Z,17.52
2022-09-24T08:17:46.420Z,14.80
2022-09-24T08:20:13.098Z,18.50
2022-09-24T08:22:39.641Z,17.88
2022-09-24T08:25:06.699Z,15.82
2022-09-24T08:27:36.291Z,15.27
2022-09-24T08:30:04.706Z,16.10
2022-09-24T08:32:31.270Z,13.93
2022-09-24T08:34:57.815Z,14.27
2022-09-24T08:37:24.433Z,14.40
2022-09-24T08:39:50.982Z,14.80
2022-09-24T08:43:07.665Z,15.20
2022-09-24T08:46:02.359Z,15.30
2022-09-24T08:48:33.261Z,15.20
2022-09-24T08:51:03.317Z,15.20
2022-09-24T08:53:52.861Z,14.55
2022-09-24T08:56:25.426Z,13.85
2022-09-24T08:59:06.096Z,13.15
2022-09-24T09:01:48.318Z,12.10
2022-09-24T09:04:26.379Z,12.30
2022-09-24T09:07:06.417Z,11.23
2022-09-24T09:09:46.317Z,10.88
2022-09-24T09:12:18.797Z,11.50
2022-09-24T09:15:00.648Z,10.07
2022-09-24T09:17:48.156Z,10.55
2022-09-24T09:20:22.315Z,10.05
2022-09-24T09:22:51.373Z,9.63
2022-09-24T09:25:30.925Z,9.65
2022-09-24T09:28:04.847Z,9.93
2022-09-24T09:33:23.062Z,9.85
2022-09-24T09:36:18.792Z,10.15
2022-09-24T09:39:04.778Z,10.57
2022-09-24T09:41:45.239Z,8.35
2022-09-24T09:44:17.808Z,8.77
2022-09-24T09:46:53.499Z,9.05
2022-09-24T09:49:20.484Z,7.70
2022-09-24T09:51:48.782Z,7.15
2022-09-24T09:54:15.370Z,9.55
2022-09-24T09:56:50.235Z,8.07
2022-09-24T09:59:19.661Z,8.52
2022-09-24T10:01:49.144Z,8.15
2022-09-24T10:04:29.162Z,7.85
2022-09-24T10:07:14.808Z,8.18
2022-09-24T10:09:42.691Z,7.45
2022-09-24T10:12:21.300Z,7.93
2022-09-24T10:14:59.335Z,7.45
2022-09-24T10:17:30.378Z,7.55
2022-09-24T10:19:57.067Z,8.30
2022-09-24T10:22:26.329Z,7.70
2022-09-24T10:24:55.964Z,8.30
2022-09-24T10:27:37.309Z,7.43
2022-09-24T10:30:34.578Z,8.95
2022-09-24T10:33:03.210Z,7.88
2022-09-24T10:35:31.537Z,7.65
2022-09-24T10:38:00.769Z,6.78
2022-09-24T10:40:31.276Z,7.18
2022-09-24T10:43:00.579Z,8.18
2022-09-24T10:45:42.274Z,7.40
2022-09-24T10:48:18.921Z,7.68
2022-09-24T10:51:11.731Z,6.90
2022-09-24T10:53:51.097Z,6.13
2022-09-24T10:56:47.342Z,4.97
2022-09-24T10:59:32.252Z,6.68
2022-09-24T11:02:13.795Z,6.63
2022-09-24T11:04:58.693Z,4.80
2022-09-24T11:07:40.242Z,3.40
2022-09-24T11:10:10.284Z,5.22
2022-09-24T11:12:55.550Z,5.32
2022-09-24T11:15:58.808Z,4.07
2022-09-24T11:19:15.081Z,4.20
2022-09-24T11:21:57.891Z,4.22
2022-09-24T11:24:43.017Z,4.47
2022-09-24T11:27:37.423Z,3.90
2022-09-24T11:30:21.802Z,3.65
2022-09-24T11:33:03.822Z,3.97
2022-09-24T11:35:50.681Z,5.03
2022-09-24T11:38:42.155Z,4.47
2022-09-24T11:41:14.558Z,4.03
2022-09-24T11:44:18.773Z,4.15
2022-09-24T11:46:53.857Z,4.90
2022-09-24T11:49:41.047Z,4.18
2022-09-24T11:52:24.270Z,4.55
2022-09-24T11:55:03.056Z,4.75
2022-09-24T11:57:37.490Z,4.43
2022-09-24T12:00:14.283Z,5.00
2022-09-24T12:02:50.215Z,4.93
2022-09-24T12:05:38.673Z,3.95
2022-09-24T12:08:13.638Z,4.53
2022-09-24T12:10:46.761Z,3.63
2022-09-24T12:13:28.338Z,4.20
2022-09-24T12:15:58.211Z,3.53
2022-09-24T12:18:33.129Z,3.08
2022-09-24T12:21:08.378Z,3.55
2022-09-24T12:23:39.775Z,3.42
2022-09-24T12:26:07.924Z,3.72
2022-09-24T12:29:07.333Z,4.15
2022-09-24T12:31:55.795Z,3.35
2022-09-24T12:34:28.266Z,3.95
2022-09-24T12:37:10.186Z,4.00
2022-09-24T12:39:48.777Z,3.55
2022-09-24T12:42:17.778Z,4.57
2022-09-24T12:44:58.425Z,4.35
2022-09-24T12:47:28.303Z,3.38
2022-09-24T12:49:58.503Z,3.28
2022-09-24T12:52:43.189Z,4.47
2022-09-24T12:55:22.193Z,4.20
2022-09-24T12:57:56.252Z,3.17
2022-09-24T13:00:31.994Z,4.00
2022-09-24T13:02:59.629Z,3.80
2022-09-24T13:05:45.930Z,4.10
2022-09-24T13:08:16.992Z,3.88
2022-09-24T13:11:07.015Z,3.85
2022-09-24T13:13:37.035Z,3.60
2022-09-24T13:16:06.940Z,3.72
2022-09-24T13:18:36.013Z,3.65
2022-09-24T13:21:19.885Z,4.15
2022-09-24T13:23:48.575Z,3.50
2022-09-24T13:26:24.299Z,3.60
2022-09-24T13:28:58.437Z,3.65
2022-09-24T13:31:28.063Z,3.42
2022-09-24T13:34:04.271Z,3.78
2022-09-24T13:36:41.634Z,3.00
2022-09-24T13:39:33.968Z,3.60
2022-09-24T13:42:16.722Z,4.55
2022-09-24T13:44:47.431Z,3.58
2022-09-24T13:47:45.402Z,3.92
2022-09-24T13:50:23.771Z,4.15
2022-09-24T13:53:07.661Z,3.65
2022-09-24T13:55:45.004Z,4.18
2022-09-24T13:58:31.783Z,3.67
2022-09-24T14:01:10.173Z,3.95
2022-09-24T14:03:39.838Z,4.47
2022-09-24T14:06:11.815Z,4.22
2022-09-24T14:08:42.466Z,3.92
2022-09-24T14:11:19.893Z,5.50
2022-09-24T14:13:46.792Z,4.40
2022-09-24T14:16:16.321Z,4.88
2022-09-24T14:18:43.024Z,5.07
2022-09-24T14:21:17.378Z,4.10
2022-09-24T14:23:56.070Z,3.80
2022-09-24T14:26:32.547Z,4.15
2022-09-24T14:29:03.593Z,4.65
2022-09-24T14:31:30.471Z,4.20
2022-09-24T14:34:01.451Z,4.03
2022-09-24T14:36:29.328Z,3.72
2022-09-24T14:39:02.487Z,4.28
2022-09-24T14:41:32.244Z,4.90
2022-09-24T14:44:14.444Z,4.72
2022-09-24T14:46:50.926Z,5.32
2022-09-24T14:49:20.038Z,5.10
2022-09-24T14:52:00.554Z,4.60
2022-09-24T14:54:40.557Z,4.75
2022-09-24T14:57:19.305Z,3.97
2022-09-24T14:59:47.247Z,4.63
2022-09-24T15:02:17.382Z,5.20
2022-09-24T15:04:53.040Z,4.93
2022-09-24T15:07:24.046Z,4.88
2022-09-24T15:09:53.176Z,3.88
2022-09-24T15:12:30.899Z,4.30
2022-09-24T15:15:01.790Z,5.47
2022-09-24T15:17:33.854Z,4.82
2022-09-24T15:20:01.364Z,5.57
2022-09-24T15:22:29.667Z,4.07
2022-09-24T15:25:01.539Z,3.65
2022-09-24T15:27:31.232Z,4.75
2022-09-24T15:30:00.002Z,4.60
2022-09-24T15:32:32.774Z,4.70
2022-09-24T15:34:59.981Z,4.22
2022-09-24T15:37:28.858Z,4.18
2022-09-24T15:40:23.015Z,5.65
2022-09-24T15:42:50.518Z,5.03
2022-09-24T15:45:22.894Z,5.22
2022-09-24T15:47:50.495Z,4.35
2022-09-24T15:50:17.952Z,3.97
2022-09-24T15:52:54.709Z,3.92
2022-09-24T15:55:22.125Z,4.20
2022-09-24T15:57:48.692Z,3.50
2022-09-24T16:00:20.522Z,3.78
2022-09-24T16:02:50.283Z,3.45
2022-09-24T16:05:17.335Z,3.97
2022-09-24T16:07:44.060Z,5.00
2022-09-24T16:10:12.634Z,8.32
2022-09-24T16:12:40.732Z,9.43
2022-09-24T16:15:08.128Z,8.00
2022-09-24T16:17:34.654Z,8.02
2022-09-24T16:20:01.541Z,8.15
2022-09-24T16:22:28.070Z,8.73
2022-09-24T16:24:54.633Z,8.18
2022-09-24T16:27:21.257Z,8.82
2022-09-24T16:29:47.810Z,6.97
2022-09-24T16:32:14.587Z,8.75
2022-09-24T16:34:41.734Z,8.85
2022-09-24T16:37:09.188Z,9.43
2022-09-24T16:39:35.794Z,9.05
2022-09-24T16:42:02.410Z,8.52
2022-09-24T16:44:28.990Z,13.48
2022-09-24T16:46:55.752Z,9.35
2022-09-24T16:49:23.770Z,11.02
2022-09-24T16:51:50.371Z,14.02
2022-09-24T16:54:18.995Z,18.98
2022-09-24T16:56:49.322Z,14.85
2022-09-24T16:59:16.684Z,15.20
2022-09-24T17:01:43.383Z,15.13
2022-09-24T17:04:10.023Z,15.20
2022-09-24T17:06:36.803Z,12.65
2022-09-24T17:09:22.759Z,16.33
2022-09-24T17:11:49.491Z,21.23
2022-09-24T17:14:17.485Z,21.77
2022-09-24T17:16:44.496Z,22.88
2022-09-24T17:19:12.294Z,21.05
2022-09-24T17:21:40.486Z,20.27
2022-09-24T17:24:07.416Z,18.52
2022-09-24T17:26:34.668Z,20.48
2022-09-24T17:29:01.582Z,19.83
2022-09-24T17:31:28.405Z,18.45
2022-09-24T17:33:56.301Z,17.98
2022-09-24T17:36:23.545Z,19.48
2022-09-24T17:38:51.907Z,19.75
2022-09-24T17:41:19.289Z,18.02
2022-09-24T17:43:45.982Z,19.45
2022-09-24T17:46:18.379Z,24.17
2022-09-24T17:48:47.221Z,22.88
2022-09-24T17:51:20.139Z,17.85
2022-09-24T17:53:47.000Z,17.67
2022-09-24T17:56:14.731Z,17.85
2022-09-24T17:58:44.378Z,16.88
2022-09-24T18:01:14.117Z,17.95
2022-09-24T18:03:41.443Z,18.30
2022-09-24T18:06:11.607Z,18.63
2022-09-24T18:08:40.341Z,18.92
2022-09-24T18:11:12.972Z,20.15
2022-09-24T18:13:40.258Z,26.02
2022-09-24T18:16:13.059Z,25.15
2022-09-24T18:18:40.482Z,22.20
2022-09-24T18:21:10.067Z,23.15
2022-09-24T18:23:37.345Z,21.98
2022-09-24T18:26:16.027Z,23.95
2022-09-24T18:28:48.681Z,24.33
2022-09-24T18:31:15.981Z,27.05
2022-09-24T18:33:44.209Z,26.23
2022-09-24T18:36:16.046Z,34.00
2022-09-24T18:38:44.556Z,36.08
2022-09-24T18:41:13.128Z,67.50
2022-09-24T18:43:40.182Z,54.38
2022-09-24T18:46:11.347Z,53.72
2022-09-24T18:48:40.151Z,40.97
2022-09-24T18:51:08.247Z,31.85
2022-09-24T18:53:35.493Z,32.40
2022-09-24T18:56:06.718Z,38.25
2022-09-24T18:58:33.495Z,35.40
2022-09-24T19:01:01.923Z,31.23
2022-09-24T19:03:30.113Z,30.73
2022-09-24T19:06:05.058Z,29.52
2022-09-24T19:08:32.315Z,29.85
2022-09-24T19:11:06.141Z,29.42
2022-09-24T19:13:32.829Z,36.83
2022-09-24T19:16:07.255Z,34.55
2022-09-24T19:18:35.636Z,43.90
2022-09-24T19:21:06.482Z,39.10
2022-09-24T19:23:41.177Z,30.13
2022-09-24T19:26:09.871Z,27.23
2022-09-24T19:28:40.895Z,32.80
2022-09-24T19:31:16.555Z,31.75
2022-09-24T19:33:44.275Z,30.60
2022-09-24T19:36:11.320Z,27.92
2022-09-24T19:38:41.777Z,30.17
2022-09-24T19:41:13.436Z,28.08
2022-09-24T19:43:43.739Z,32.85
2022-09-24T19:46:17.170Z,28.45
2022-09-24T19:48:45.918Z,28.52
2022-09-24T19:51:21.311Z,27.42
2022-09-24T19:53:52.839Z,27.73
2022-09-24T19:56:22.421Z,27.10
2022-09-24T19:58:55.257Z,26.10
2022-09-24T20:01:24.303Z,25.98
2022-09-24T20:03:51.498Z,29.38
2022-09-24T20:06:23.635Z,34.60
2022-09-24T20:08:50.337Z,32.00
2022-09-24T20:11:20.847Z,46.67
2022-09-24T20:13:48.670Z,36.88
2022-09-24T20:16:19.353Z,28.48
2022-09-24T20:18:51.021Z,27.45
2022-09-24T20:21:19.067Z,31.85
2022-09-24T20:23:47.414Z,31.48
2022-09-24T20:26:34.890Z,32.88
2022-09-24T20:29:02.297Z,33.90
2022-09-24T20:31:30.046Z,30.42
2022-09-24T20:33:57.118Z,24.80
2022-09-24T20:36:24.942Z,27.73
2022-09-24T20:38:52.357Z,27.55
2022-09-24T20:41:22.820Z,30.02
2022-09-24T20:43:49.962Z,35.30
2022-09-24T20:46:22.020Z,30.73
2022-09-24T20:48:48.921Z,27.20
2022-09-24T20:51:18.334Z,28.65
2022-09-24T20:53:46.330Z,32.60
2022-09-24T20:56:13.707Z,35.50
2022-09-24T20:58:41.429Z,43.30
2022-09-24T21:01:09.242Z,33.22
2022-09-24T21:03:46.031Z,48.60
2022-09-24T21:06:15.174Z,29.70
2022-09-24T21:08:43.877Z,29.90
2022-09-24T21:11:13.060Z,32.45
2022-09-24T21:13:42.080Z,32.00
2022-09-24T21:16:09.655Z,28.50
2022-09-24T21:18:41.264Z,25.80
2022-09-24T21:21:15.433Z,25.50
2022-09-24T21:23:47.273Z,30.45
2022-09-24T21:26:25.404Z,25.77
2022-09-24T21:28:54.005Z,22.48
2022-09-24T21:31:22.966Z,19.63
2022-09-24T21:33:54.596Z,19.02
2022-09-24T21:36:24.287Z,23.63
2022-09-24T21:38:55.669Z,31.90
2022-09-24T21:41:31.238Z,36.88
2022-09-24T21:43:58.060Z,28.70
2022-09-24T21:46:26.663Z,28.42
2022-09-24T21:48:54.961Z,31.83
2022-09-24T21:51:22.255Z,32.50
2022-09-24T21:53:49.273Z,35.28
2022-09-24T21:56:18.800Z,35.22
2022-09-24T21:58:46.483Z,33.25
2022-09-24T22:01:18.380Z,31.80
2022-09-24T22:03:48.191Z,24.98
2022-09-24T22:06:15.318Z,22.08
2022-09-24T22:08:43.220Z,21.50
2022-09-24T22:11:11.860Z,23.92
2022-09-24T22:13:39.443Z,26.90
2022-09-24T22:16:11.033Z,35.10
2022-09-24T22:18:38.681Z,35.75
2022-09-24T22:21:10.498Z,34.35
2022-09-24T22:23:37.694Z,28.23
2022-09-24T22:26:05.576Z,26.02
2022-09-24T22:28:32.685Z,24.95
2022-09-24T22:31:05.117Z,24.95
2022-09-24T22:33:50.873Z,26.25
2022-09-24T22:36:17.463Z,27.17
2022-09-24T22:38:43.975Z,28.45
2022-09-24T22:41:12.202Z,28.27
2022-09-24T22:43:39.656Z,25.63
2022-09-24T22:46:09.884Z,25.02
2022-09-24T22:48:37.129Z,40.65
2022-09-24T22:51:04.900Z,47.10
2022-09-24T22:53:36.464Z,36.42
2022-09-24T22:56:10.670Z,32.38
2022-09-24T22:58:39.992Z,40.88
2022-09-24T23:01:10.936Z,46.65
2022-09-24T23:03:38.332Z,39.35
2022-09-24T23:06:06.456Z,33.22
2022-09-24T23:08:34.705Z,33.72
2022-09-24T23:11:17.898Z,38.40
2022-09-24T23:13:46.556Z,40.60
2022-09-24T23:16:17.657Z,59.50
2022-09-24T23:18:48.743Z,62.92
2022-09-24T23:21:17.340Z,83.20
2022-09-24T23:23:44.536Z,83.10
2022-09-24T23:26:17.241Z,93.32
2022-09-24T23:28:46.916Z,79.00
2022-09-24T23:31:14.865Z,58.55
2022-09-24T23:33:42.353Z,65.40
2022-09-24T23:36:11.291Z,59.65
2022-09-24T23:38:38.114Z,68.85
2022-09-24T23:41:05.433Z,47.28
2022-09-24T23:43:33.318Z,53.92
2022-09-24T23:46:00.309Z,81.43
2022-09-24T23:48:28.042Z,84.72
2022-09-24T23:50:55.244Z,63.13
2022-09-24T23:53:22.113Z,54.92
2022-09-24T23:55:49.514Z,56.50
2022-09-24T23:58:18.159Z,60.92
